CheckWX is a tool to help pilots better visualize weather data.  It is not intended as a substitute for an official pre-flight weather briefing.

06:53:44 UTC

KCKB TAF
North Central West Virginia Airport
Clarksburg, West Virginia, USA
KCKB 180540Z 1806/1906 19004KT P6SM OVC110 FM181200 24007KT 6SM SHRA OVC022 FM181400 24007KT 5SM SHRA OVC014 FM181700 22006KT P6SM BKN022 OVC045 PROB30 1818/1822 4SM -TSRA BKN020CB BKN045

Jun-18@
06:00 UTC

Jun-18 @ 06:00 UTC

Jun-18@
12:00 UTC

Jun-18 @ 12:00 UTC

KCKB 180540Z 1806/1906 19004KT P6SM OVC110
Wind
  • 190° at 4 KTS
Cloud Levels
  • Overcast at 11,000' AGL

Jun-18@
12:00 UTC

Jun-18 @ 12:00 UTC

Jun-18@
14:00 UTC

Jun-18 @ 14:00 UTC

FM181200 24007KT 6SM SHRA OVC022

From

From Standard forecast or significant change

Wind
  • 240° at 7 KTS
Conditions
Rain
Cloud Levels
  • Overcast at 2,200' AGL

Jun-18@
14:00 UTC

Jun-18 @ 14:00 UTC

Jun-18@
17:00 UTC

Jun-18 @ 17:00 UTC

FM181400 24007KT 5SM SHRA OVC014

From

From Standard forecast or significant change

Wind
  • 240° at 7 KTS
Conditions
Rain
Cloud Levels
  • Overcast at 1,400' AGL

Jun-18@
17:00 UTC

Jun-18 @ 17:00 UTC

Jun-19@
06:00 UTC

Jun-19 @ 06:00 UTC

FM181700 22006KT P6SM BKN022 OVC045

From

From Standard forecast or significant change

Wind
  • 220° at 6 KTS
Cloud Levels
  • Broken at 2,200' AGL
  • Overcast at 4,500' AGL

Jun-18@
18:00 UTC

Jun-18 @ 18:00 UTC

Jun-18@
22:00 UTC

Jun-18 @ 22:00 UTC

PROB30 1818/1822 4SM -TSRA BKN020CB BKN045

Probable - 30% Likelihood

Probable - 30% Likelihood during this time.

Conditions
Light Thunderstorm, Light Rain
Cloud Levels
  • Broken at 2,000' AGL
  • Broken at 4,500' AGL